Terminal Aerodrome Forecast
Issued by NWS

Home | Current Version | Previous Version | Text Only | Print | Product List | Glossary On
Versions: 1 2 3 4 5 6 7 8 9 10 11 12 13 14 15 16 17 18 19 20 21 22 23
000
FTUS43 KDVN 262320
TAFBRL
TAF
KBRL 262320Z 2700/2724 09003KT P6SM SCT040
     FM270700 11003KT 4SM BR SCT200
     FM271000 VRB03KT 2SM BR SCT020
      TEMPO 2710/2714 1SM BR OVC010
     FM271400 12005KT 4SM BR BKN025
     FM271600 14007KT P6SM BKN050=

USA.gov is the U.S. government's official web portal to all federal, state and local government web resources and services.